Time;durP1;ratioP1;P1;durP2;ratioP2;P2;SDS_P1;SDS_P2;PMS_P1;PMS_P2;Temp;Humidity;BMP_temperature;BMP_pressure;BME280_temperature;BME280_humidity;BME280_pressure;Samples;Min_cycle;Max_cycle;Signal;HPM_P1;HPM_P2
2021/07/12 00:01:33;;;;;;;6.90;5.22;;;;;;;31.14;29.09;94367.56;5095310;28;20055;-52
2021/07/12 00:04:00;;;;;;;7.47;4.88;;;;;;;30.71;29.81;94373.06;5076728;28;20040;-54
2021/07/12 00:06:27;;;;;;;8.00;5.05;;;;;;;30.72;29.75;94374.59;5095539;28;20048;-54
2021/07/12 00:08:54;;;;;;;5.72;4.80;;;;;;;31.35;28.88;94374.50;5093985;28;20048;-52
2021/07/12 00:11:21;;;;;;;6.53;4.93;;;;;;;31.05;29.28;94364.69;5095178;28;20043;-52
2021/07/12 00:13:50;;;;;;;6.55;4.93;;;;;;;30.94;29.44;94362.19;5101907;28;20377;-50
2021/07/12 00:16:18;;;;;;;5.10;4.57;;;;;;;31.48;28.38;94353.75;5115345;28;20047;-54
2021/07/12 00:18:45;;;;;;;6.40;5.40;;;;;;;30.90;29.27;94369.59;5114583;28;20077;-52
2021/07/12 00:21:12;;;;;;;6.05;5.05;;;;;;;30.84;29.29;94371.28;5115522;28;20047;-53
2021/07/12 00:23:39;;;;;;;6.28;5.10;;;;;;;30.81;29.20;94391.00;5110684;28;20055;-50
2021/07/12 00:26:06;;;;;;;5.43;4.93;;;;;;;30.49;29.84;94378.84;5094879;28;20039;-52
2021/07/12 00:28:33;;;;;;;4.78;4.38;;;;;;;30.73;29.45;94376.13;5094716;28;20441;-53
2021/07/12 00:31:02;;;;;;;5.10;4.60;;;;;;;31.01;28.88;94380.97;5095110;28;20052;-53
2021/07/12 00:33:29;;;;;;;5.50;5.00;;;;;;;30.58;29.82;94387.13;5094922;28;20066;-53
2021/07/12 00:36:03;;;;;;;6.57;5.43;;;;;;;30.41;30.02;94393.59;5094617;28;20044;-51
2021/07/12 00:38:31;;;;;;;6.22;4.82;;;;;;;30.49;29.92;94384.22;5076186;28;20048;-51
2021/07/12 00:40:59;;;;;;;6.82;4.95;;;;;;;30.54;30.04;94394.53;5056765;28;20044;-51
2021/07/12 00:43:26;;;;;;;7.30;5.30;;;;;;;30.47;29.96;94383.88;5054498;28;20467;-53
2021/07/12 00:45:53;;;;;;;5.45;4.78;;;;;;;30.73;29.82;94389.63;5051118;28;20040;-55
2021/07/12 00:48:21;;;;;;;6.72;4.68;;;;;;;30.78;29.67;94391.81;5074493;28;20473;-52
2021/07/12 00:50:51;;;;;;;6.97;5.18;;;;;;;30.02;30.90;94388.84;5073292;28;20049;-51
2021/07/12 00:53:19;;;;;;;9.35;5.43;;;;;;;29.85;30.84;94389.88;5056541;28;20052;-50
2021/07/12 00:55:50;;;;;;;5.82;4.80;;;;;;;30.60;29.44;94384.81;5080204;28;20497;-50
2021/07/12 00:58:21;;;;;;;5.95;4.75;;;;;;;30.03;30.64;94385.78;5074445;28;20049;-53
2021/07/12 01:00:53;;;;;;;5.97;4.97;;;;;;;30.24;30.37;94386.59;5074038;28;20356;-53
2021/07/12 01:03:21;;;;;;;6.85;4.88;;;;;;;30.48;29.87;94390.03;5074284;28;20045;-52
2021/07/12 01:05:51;;;;;;;6.22;5.07;;;;;;;30.30;30.33;94387.66;5074112;28;20052;-51
2021/07/12 01:08:19;;;;;;;6.03;4.90;;;;;;;30.71;29.80;94389.25;5074260;28;20056;-52
2021/07/12 01:11:30;;;;;;;6.10;5.50;;;;;;;30.47;30.20;94381.19;5051969;28;20045;-52
2021/07/12 01:14:08;;;;;;;6.28;5.07;;;;;;;30.01;30.77;94382.72;5036746;28;20057;-51
2021/07/12 01:17:14;;;;;;;5.75;4.95;;;;;;;30.32;30.50;94379.91;5037037;28;20052;-52
2021/07/12 01:20:07;;;;;;;6.47;5.20;;;;;;;30.28;30.28;94384.59;5071061;28;20044;-52
2021/07/12 01:22:56;;;;;;;5.30;4.80;;;;;;;30.30;30.47;94376.88;5094455;28;20059;-52
2021/07/12 01:26:00;;;;;;;5.63;5.03;;;;;;;30.03;30.95;94380.41;5082901;28;20044;-53
2021/07/12 01:29:09;;;;;;;5.60;4.93;;;;;;;30.24;30.63;94378.53;5056492;28;20052;-53
2021/07/12 01:32:02;;;;;;;6.30;5.10;;;;;;;30.32;30.48;94390.69;5056353;28;20060;-51
2021/07/12 01:34:34;;;;;;;6.30;5.55;;;;;;;29.86;30.95;94386.78;5073805;28;20048;-53
2021/07/12 01:37:18;;;;;;;5.28;4.78;;;;;;;30.10;30.88;94384.13;5056162;28;20052;-55
2021/07/12 01:40:08;;;;;;;6.53;4.88;;;;;;;30.33;30.53;94390.28;5073144;28;20051;-52
2021/07/12 01:42:53;;;;;;;5.57;4.88;;;;;;;30.53;30.09;94384.16;5069742;28;20056;-53
2021/07/12 01:45:22;;;;;;;6.00;5.10;;;;;;;30.46;30.29;94379.66;5102553;28;20327;-51
2021/07/12 01:47:58;;;;;;;5.60;5.10;;;;;;;30.05;31.10;94383.44;5079720;28;20365;-52
2021/07/12 01:50:56;;;;;;;5.30;4.85;;;;;;;29.74;31.36;94387.38;5114306;28;20043;-53
2021/07/12 01:53:42;;;;;;;6.10;5.53;;;;;;;29.96;31.10;94385.88;5096482;28;20361;-52
2021/07/12 01:56:29;;;;;;;8.45;5.75;;;;;;;30.33;30.72;94386.81;5095325;28;20286;-52
2021/07/12 01:59:06;;;;;;;6.05;5.20;;;;;;;30.48;30.60;94396.19;5099422;28;20043;-51
2021/07/12 02:01:36;;;;;;;6.15;5.20;;;;;;;29.69;31.68;94398.63;5100554;28;20052;-51
2021/07/12 02:04:06;;;;;;;8.85;5.97;;;;;;;29.91;31.40;94385.56;5100672;28;20043;-55
2021/07/12 02:06:39;;;;;;;7.65;5.70;;;;;;;30.53;30.31;94393.00;5083061;28;20511;-51
2021/07/12 02:09:12;;;;;;;5.85;5.22;;;;;;;30.33;30.75;94394.91;5083639;28;20051;-52
2021/07/12 02:11:46;;;;;;;6.55;5.05;;;;;;;30.45;30.40;94402.41;5099885;28;20105;-52
2021/07/12 02:14:19;;;;;;;6.13;5.50;;;;;;;29.85;31.46;94400.66;5074986;28;20044;-53
2021/07/12 02:16:49;;;;;;;7.60;5.28;;;;;;;30.21;30.85;94398.97;5099549;28;20052;-54
2021/07/12 02:19:18;;;;;;;6.10;5.30;;;;;;;30.02;31.28;94400.41;5098771;28;20042;-51
2021/07/12 02:21:52;;;;;;;6.13;5.63;;;;;;;29.94;31.55;94401.69;5100851;28;20039;-52
2021/07/12 02:24:31;;;;;;;7.70;5.68;;;;;;;29.63;31.81;94395.59;5098988;28;20054;-51
2021/07/12 02:27:00;;;;;;;6.10;5.50;;;;;;;29.65;32.04;94400.56;5082916;28;20059;-54
2021/07/12 02:29:30;;;;;;;8.68;5.57;;;;;;;29.68;32.16;94405.16;5099450;28;20050;-56
2021/07/12 02:31:59;;;;;;;10.43;6.03;;;;;;;30.17;31.34;94400.19;5099827;28;20059;-50
2021/07/12 02:34:49;;;;;;;6.90;5.60;;;;;;;29.85;31.77;94406.81;5100775;28;20055;-52
2021/07/12 02:37:16;;;;;;;7.45;5.72;;;;;;;30.18;31.17;94396.31;5117399;28;20453;-50
2021/07/12 02:39:46;;;;;;;6.05;5.40;;;;;;;29.88;31.94;94399.84;5117382;28;20051;-51
2021/07/12 02:42:14;;;;;;;7.78;6.00;;;;;;;29.95;31.68;94402.44;5099931;28;20060;-52
2021/07/12 02:44:48;;;;;;;8.68;5.80;;;;;;;30.25;31.15;94407.00;5098665;28;20051;-52
2021/07/12 02:47:17;;;;;;;8.07;5.60;;;;;;;29.90;31.87;94402.91;5090734;28;20055;-53
2021/07/12 02:49:45;;;;;;;8.45;5.75;;;;;;;29.95;31.88;94405.91;5115666;28;20039;-52
2021/07/12 02:52:25;;;;;;;8.50;6.10;;;;;;;29.97;31.79;94402.81;5082560;28;20077;-53
2021/07/12 02:54:58;;;;;;;6.22;5.63;;;;;;;29.80;31.57;94393.06;5080933;28;20069;-51
2021/07/12 02:57:29;;;;;;;9.95;5.97;;;;;;;29.98;31.68;94388.16;5099023;28;20377;-54
2021/07/12 02:59:58;;;;;;;10.05;6.78;;;;;;;29.72;32.14;94403.19;5098857;28;20054;-54
2021/07/12 03:02:26;;;;;;;9.15;6.80;;;;;;;29.71;32.11;94391.66;5089839;28;20044;-51
2021/07/12 03:04:53;;;;;;;10.65;6.38;;;;;;;29.76;31.92;94395.81;5080780;28;20059;-52
2021/07/12 03:07:28;;;;;;;7.20;5.95;;;;;;;29.75;31.93;94400.44;5116730;28;20051;-52
2021/07/12 03:10:03;;;;;;;7.95;5.90;;;;;;;29.95;31.81;94403.22;5098211;28;20434;-51
2021/07/12 03:12:41;;;;;;;6.80;6.10;;;;;;;29.54;32.36;94402.66;5098154;28;20377;-53
2021/07/12 03:15:12;;;;;;;9.98;6.00;;;;;;;29.94;31.61;94399.00;5081940;28;20369;-52
2021/07/12 03:17:58;;;;;;;10.15;6.60;;;;;;;29.68;32.07;94391.72;5081928;28;20669;-50
2021/07/12 03:20:26;;;;;;;7.82;6.28;;;;;;;30.23;31.50;94393.16;5098062;28;20047;-52
2021/07/12 03:22:56;;;;;;;9.98;6.15;;;;;;;29.56;32.47;94403.03;5116878;28;20051;-52
2021/07/12 03:25:34;;;;;;;8.32;6.75;;;;;;;29.69;32.23;94399.38;5097744;28;20044;-54
2021/07/12 03:28:04;;;;;;;8.40;5.82;;;;;;;29.62;32.59;94401.38;5097535;28;20056;-51
2021/07/12 03:30:33;;;;;;;6.90;5.82;;;;;;;29.50;33.03;94397.34;5098450;28;20043;-51
2021/07/12 03:33:01;;;;;;;7.75;6.07;;;;;;;29.72;32.45;94395.09;5082173;28;20048;-51
2021/07/12 03:35:46;;;;;;;8.25;6.25;;;;;;;30.16;31.64;94404.06;5077853;28;20405;-52
2021/07/12 03:38:19;;;;;;;7.28;6.07;;;;;;;29.96;31.93;94404.75;5094646;28;20381;-53
2021/07/12 03:40:47;;;;;;;6.82;5.93;;;;;;;29.77;32.34;94405.41;5111863;28;20054;-55
2021/07/12 03:43:15;;;;;;;7.72;6.00;;;;;;;29.70;32.52;94402.84;5106464;28;20055;-51
2021/07/12 03:45:52;;;;;;;7.10;6.20;;;;;;;29.76;32.37;94401.19;5097594;28;20047;-53
2021/07/12 03:48:19;;;;;;;8.38;6.18;;;;;;;29.88;32.30;94400.63;5098098;28;20043;-50
2021/07/12 03:50:47;;;;;;;8.02;6.15;;;;;;;29.63;32.83;94411.00;5080320;28;20044;-52
2021/07/12 03:53:14;;;;;;;6.93;6.18;;;;;;;29.41;33.37;94410.53;5097683;28;20047;-52
2021/07/12 03:55:41;;;;;;;7.50;6.20;;;;;;;29.86;32.42;94399.50;5115673;28;20039;-52
2021/07/12 03:58:08;;;;;;;12.30;6.20;;;;;;;29.82;32.87;94406.88;5115924;28;20339;-52
2021/07/12 04:00:35;;;;;;;8.40;6.30;;;;;;;29.85;32.56;94406.81;5115537;28;20050;-52
2021/07/12 04:03:03;;;;;;;7.53;6.35;;;;;;;29.84;32.52;94416.06;5115793;28;20047;-52
2021/07/12 04:05:30;;;;;;;8.98;5.90;;;;;;;30.10;32.36;94406.47;5115743;28;20441;-51
2021/07/12 04:07:57;;;;;;;7.57;6.10;;;;;;;29.79;32.85;94413.84;5115844;28;20050;-50
2021/07/12 04:10:24;;;;;;;7.38;6.10;;;;;;;29.59;33.28;94410.28;5115654;28;20055;-53
2021/07/12 04:12:51;;;;;;;6.68;6.05;;;;;;;29.91;32.88;94420.59;5114802;28;20043;-50
2021/07/12 04:15:18;;;;;;;6.47;5.88;;;;;;;30.22;32.38;94415.91;5115501;28;20056;-51
2021/07/12 04:17:46;;;;;;;6.03;5.45;;;;;;;29.78;33.60;94417.72;5115612;28;20080;-50
2021/07/12 04:20:13;;;;;;;7.07;6.05;;;;;;;29.36;33.93;94425.19;5115190;28;20055;-50
2021/07/12 04:22:41;;;;;;;7.18;6.47;;;;;;;29.33;34.02;94423.28;5114808;28;20036;-50
2021/07/12 04:25:10;;;;;;;7.38;6.47;;;;;;;29.63;33.38;94424.47;5115468;28;20051;-51
2021/07/12 04:27:37;;;;;;;8.48;6.95;;;;;;;29.42;34.19;94420.88;5115255;28;20046;-54
2021/07/12 04:30:06;;;;;;;6.95;5.97;;;;;;;29.56;34.09;94424.56;5115048;28;20048;-50
2021/07/12 04:32:34;;;;;;;8.35;6.38;;;;;;;29.77;33.63;94438.50;5115297;28;20047;-52
2021/07/12 04:35:02;;;;;;;9.15;6.30;;;;;;;29.74;33.77;94438.56;5105316;28;20051;-52
2021/07/12 04:37:29;;;;;;;10.60;6.72;;;;;;;29.50;34.48;94428.88;5074305;28;20059;-51
2021/07/12 04:39:56;;;;;;;7.00;6.30;;;;;;;30.15;33.23;94432.94;5090379;28;20043;-49
2021/07/12 04:42:23;;;;;;;8.05;6.65;;;;;;;29.84;33.86;94429.53;5115278;28;20366;-56
2021/07/12 04:44:50;;;;;;;8.55;6.53;;;;;;;29.30;34.91;94432.19;5115011;28;20059;-52
2021/07/12 04:47:17;;;;;;;12.88;6.40;;;;;;;29.95;33.66;94432.84;5114296;28;20052;-52
2021/07/12 04:49:44;;;;;;;7.03;6.32;;;;;;;29.94;33.68;94420.56;5114854;28;20039;-52
2021/07/12 04:52:11;;;;;;;9.50;6.57;;;;;;;29.50;34.12;94428.88;5115177;28;20051;-51
2021/07/12 04:54:38;;;;;;;6.95;6.10;;;;;;;30.27;33.20;94420.81;5114010;28;20050;-54
2021/07/12 04:57:05;;;;;;;9.85;6.65;;;;;;;29.50;34.27;94420.81;5113891;28;20481;-56
2021/07/12 04:59:38;;;;;;;7.15;6.40;;;;;;;29.87;33.66;94420.63;5114511;28;20047;-50
2021/07/12 05:02:09;;;;;;;13.18;6.93;;;;;;;30.03;33.85;94428.91;5115115;28;20059;-55
2021/07/12 05:04:36;;;;;;;7.68;6.95;;;;;;;30.02;33.90;94427.34;5114843;28;20485;-51
2021/07/12 05:07:05;;;;;;;12.98;7.68;;;;;;;29.73;34.00;94420.88;5114858;28;20048;-51
2021/07/12 05:09:32;;;;;;;8.50;7.13;;;;;;;29.85;34.03;94425.69;5113565;28;20044;-51
2021/07/12 05:11:59;;;;;;;7.40;6.45;;;;;;;29.86;34.04;94421.81;5114824;28;20335;-52
2021/07/12 05:14:27;;;;;;;8.07;6.63;;;;;;;29.80;34.30;94428.84;5113827;28;20051;-50
2021/07/12 05:16:54;;;;;;;7.72;6.95;;;;;;;29.85;34.26;94427.63;5114619;28;20047;-53
2021/07/12 05:19:21;;;;;;;8.43;6.78;;;;;;;30.22;33.03;94424.00;5114370;28;20051;-54
2021/07/12 05:21:48;;;;;;;11.40;7.75;;;;;;;30.24;33.63;94427.03;5114914;28;20055;-52
2021/07/12 05:24:15;;;;;;;8.38;6.75;;;;;;;30.20;33.58;94421.72;5114116;28;20043;-51
2021/07/12 05:26:42;;;;;;;8.20;6.70;;;;;;;30.52;32.86;94431.94;5073443;28;20362;-51
2021/07/12 05:29:09;;;;;;;9.35;7.63;;;;;;;29.92;33.46;94430.97;5074204;28;20058;-51
2021/07/12 05:31:37;;;;;;;9.60;7.80;;;;;;;30.16;33.44;94422.91;5113793;28;20048;-52
2021/07/12 05:34:04;;;;;;;8.93;7.55;;;;;;;30.83;32.34;94429.13;5099827;28;20446;-51
2021/07/12 05:36:31;;;;;;;8.18;6.88;;;;;;;30.89;32.67;94432.84;5106767;28;20048;-51
2021/07/12 05:38:58;;;;;;;7.95;7.15;;;;;;;31.03;31.71;94427.19;5078126;28;20370;-51
2021/07/12 05:41:25;;;;;;;8.48;6.78;;;;;;;30.92;32.13;94437.41;5115350;28;20043;-54
2021/07/12 05:43:52;;;;;;;8.57;7.05;;;;;;;30.99;32.43;94431.91;5099706;28;20056;-54
2021/07/12 05:46:19;;;;;;;11.50;6.93;;;;;;;31.15;31.96;94428.47;5078009;28;20052;-52
2021/07/12 05:48:46;;;;;;;8.68;7.40;;;;;;;31.08;31.79;94429.41;5077799;28;20489;-54
2021/07/12 05:51:13;;;;;;;9.50;7.32;;;;;;;31.14;31.46;94427.72;5094357;28;20048;-51
2021/07/12 05:53:41;;;;;;;7.38;6.57;;;;;;;31.67;30.93;94433.97;5100860;28;20056;-51
2021/07/12 05:56:08;;;;;;;10.35;7.07;;;;;;;31.70;31.37;94430.44;5117764;28;20043;-53
2021/07/12 05:58:35;;;;;;;9.13;6.80;;;;;;;31.75;30.60;94432.69;5118146;28;20043;-52
2021/07/12 06:01:02;;;;;;;8.13;6.82;;;;;;;31.69;30.94;94428.91;5118000;28;20051;-52
2021/07/12 06:03:29;;;;;;;8.93;6.35;;;;;;;31.85;30.97;94426.25;5116551;28;20052;-52
2021/07/12 06:05:56;;;;;;;8.00;7.20;;;;;;;31.60;31.35;94437.59;5076369;28;20044;-52
2021/07/12 06:08:23;;;;;;;7.93;7.15;;;;;;;31.85;31.06;94431.66;5077306;28;20067;-51
2021/07/12 06:10:50;;;;;;;8.32;6.55;;;;;;;32.37;30.61;94432.81;5090320;28;20489;-53
2021/07/12 06:13:17;;;;;;;9.48;6.25;;;;;;;32.19;30.34;94441.31;5097342;28;20130;-54
2021/07/12 06:15:45;;;;;;;9.05;6.90;;;;;;;32.20;30.56;94435.47;5097113;28;20044;-52
2021/07/12 06:18:13;;;;;;;8.13;6.60;;;;;;;32.41;30.34;94433.47;5097532;28;20048;-52
2021/07/12 06:20:41;;;;;;;8.23;6.50;;;;;;;32.95;29.71;94438.28;5095452;28;20051;-51
2021/07/12 06:23:08;;;;;;;7.63;6.40;;;;;;;33.23;28.97;94440.19;5097641;28;20047;-52
2021/07/12 06:25:37;;;;;;;7.25;6.47;;;;;;;33.31;29.54;94446.16;5094284;28;20063;-54
2021/07/12 06:28:05;;;;;;;7.90;7.00;;;;;;;33.27;28.83;94443.56;5077879;28;20056;-52
2021/07/12 06:30:32;;;;;;;9.13;6.40;;;;;;;33.29;28.85;94429.59;5086460;28;20442;-52
2021/07/12 06:32:59;;;;;;;7.75;6.57;;;;;;;33.76;28.40;94446.03;5097381;28;20051;-53
2021/07/12 06:35:26;;;;;;;7.30;6.20;;;;;;;33.62;28.82;94447.25;5084157;28;20044;-52
2021/07/12 06:37:54;;;;;;;8.02;6.60;;;;;;;33.99;28.01;94442.28;5075801;28;20474;-51
2021/07/12 06:40:22;;;;;;;7.28;6.45;;;;;;;33.87;28.12;94451.19;5084263;28;20044;-52
2021/07/12 06:42:50;;;;;;;9.77;7.20;;;;;;;33.86;28.11;94444.25;5095835;28;20063;-52
2021/07/12 06:45:19;;;;;;;7.43;6.72;;;;;;;33.78;27.74;94443.66;5077449;28;20055;-52
2021/07/12 06:47:47;;;;;;;7.47;6.78;;;;;;;34.23;28.10;94439.97;5096858;28;20044;-52
2021/07/12 06:50:16;;;;;;;8.07;6.50;;;;;;;34.33;27.28;94444.28;5078592;28;20051;-53
2021/07/12 06:52:43;;;;;;;10.40;6.78;;;;;;;34.08;27.65;94434.25;5096950;28;20087;-50
2021/07/12 06:55:11;;;;;;;10.80;6.78;;;;;;;34.54;27.25;94421.91;5108508;28;20044;-49
2021/07/12 06:57:38;;;;;;;8.90;7.00;;;;;;;34.32;27.02;94432.69;5094542;28;20051;-53
2021/07/12 07:00:07;;;;;;;7.60;6.30;;;;;;;34.43;26.94;94431.63;5115761;28;20044;-50
2021/07/12 07:02:35;;;;;;;10.05;6.47;;;;;;;34.47;27.18;94427.59;5099196;28;20047;-51
2021/07/12 07:05:08;;;;;;;9.73;6.57;;;;;;;34.83;26.46;94421.69;5117299;28;20437;-53
2021/07/12 07:07:36;;;;;;;11.15;7.18;;;;;;;34.81;26.66;94434.19;5116206;28;20044;-55
2021/07/12 07:10:05;;;;;;;12.10;6.88;;;;;;;34.85;26.24;94435.63;5110308;28;20374;-54
2021/07/12 07:12:33;;;;;;;7.67;6.60;;;;;;;35.09;25.57;94435.19;5058707;28;20394;-54
2021/07/12 07:15:00;;;;;;;7.40;6.63;;;;;;;35.26;26.08;94435.75;5076332;28;20295;-53
2021/07/12 07:17:27;;;;;;;9.38;7.00;;;;;;;35.31;25.75;94433.22;5086358;28;20040;-55
2021/07/12 07:19:55;;;;;;;9.50;6.95;;;;;;;35.24;25.48;94433.47;5095743;28;20060;-53
2021/07/12 07:22:23;;;;;;;9.55;6.93;;;;;;;35.44;25.37;94431.22;5095390;28;20048;-55
2021/07/12 07:24:52;;;;;;;8.57;6.93;;;;;;;35.38;25.14;94427.53;5057143;22;20053;-55
2021/07/12 07:27:20;;;;;;;6.93;6.07;;;;;;;35.78;25.14;94426.84;5037262;28;20049;-54
2021/07/12 07:29:47;;;;;;;8.73;6.43;;;;;;;35.75;24.92;94433.19;5037484;28;20060;-58
2021/07/12 07:32:16;;;;;;;11.80;6.75;;;;;;;35.75;25.72;94433.19;5055196;28;20057;-53
2021/07/12 07:34:46;;;;;;;7.82;6.18;;;;;;;35.99;24.47;94426.03;5037596;28;20044;-57
2021/07/12 07:37:13;;;;;;;7.25;6.55;;;;;;;35.89;24.64;94419.03;5037521;28;20041;-57
2021/07/12 07:39:43;;;;;;;10.15;6.47;;;;;;;35.68;24.68;94422.59;5055437;28;20053;-52
2021/07/12 07:42:11;;;;;;;8.77;6.30;;;;;;;36.11;24.23;94422.44;5055756;28;20067;-53
2021/07/12 07:44:38;;;;;;;6.68;5.88;;;;;;;36.11;23.99;94417.00;5039865;28;20050;-53
2021/07/12 07:47:05;;;;;;;8.23;6.45;;;;;;;36.15;24.20;94412.16;5052408;28;20324;-55
2021/07/12 07:49:32;;;;;;;6.55;5.82;;;;;;;36.25;23.56;94420.38;5055402;28;20056;-53
2021/07/12 07:51:59;;;;;;;6.95;5.97;;;;;;;36.40;24.05;94418.59;5054988;28;20048;-55
2021/07/12 07:54:26;;;;;;;6.78;5.93;;;;;;;36.53;23.87;94421.94;5054193;28;20061;-53
2021/07/12 07:56:53;;;;;;;9.27;6.50;;;;;;;36.62;23.32;94421.19;5054623;28;20055;-53
2021/07/12 07:59:21;;;;;;;7.32;5.97;;;;;;;36.52;23.14;94417.72;5054599;28;20063;-53
2021/07/12 08:01:48;;;;;;;9.65;5.88;;;;;;;36.64;22.82;94414.06;5040049;28;20053;-53
2021/07/12 08:04:15;;;;;;;8.23;6.00;;;;;;;36.53;23.11;94419.22;5035269;28;20361;-53
2021/07/12 08:06:42;;;;;;;7.95;5.55;;;;;;;36.75;22.62;94408.94;5048295;28;20044;-55
2021/07/12 08:09:09;;;;;;;5.97;5.43;;;;;;;36.80;22.83;94415.03;5054412;28;20471;-53
2021/07/12 08:11:36;;;;;;;7.72;5.82;;;;;;;36.85;22.82;94406.25;5053946;28;20055;-54
2021/07/12 08:14:04;;;;;;;7.20;5.70;;;;;;;37.04;22.38;94413.94;5054983;28;20367;-54
2021/07/12 08:16:31;;;;;;;10.27;5.70;;;;;;;37.29;22.22;94412.88;5054505;28;20052;-53
2021/07/12 08:18:58;;;;;;;7.20;5.03;;;;;;;37.50;22.38;94413.88;5052526;28;20040;-55
2021/07/12 08:21:25;;;;;;;8.27;5.55;;;;;;;37.47;21.72;94416.75;5035151;28;20053;-54
2021/07/12 08:23:52;;;;;;;7.25;5.88;;;;;;;37.34;21.21;94414.22;5035922;28;20045;-53
2021/07/12 08:26:19;;;;;;;7.10;5.47;;;;;;;37.30;21.28;94414.38;5034400;28;20456;-53
2021/07/12 08:28:46;;;;;;;8.23;5.20;;;;;;;37.56;21.49;94412.03;5034907;28;20042;-54
2021/07/12 08:31:14;;;;;;;7.00;5.45;;;;;;;37.61;21.39;94416.88;5034538;28;20057;-53
2021/07/12 08:33:42;;;;;;;6.40;5.82;;;;;;;37.76;21.12;94417.00;5034625;28;20061;-55
2021/07/12 08:36:09;;;;;;;8.43;5.72;;;;;;;37.46;21.64;94409.78;5034409;28;20049;-53
2021/07/12 08:38:37;;;;;;;6.28;5.68;;;;;;;37.73;21.46;94411.69;5033836;28;20068;-57
2021/07/12 08:41:04;;;;;;;6.32;5.00;;;;;;;37.46;19.95;94416.00;5034411;28;20049;-54
2021/07/12 08:43:32;;;;;;;5.55;5.05;;;;;;;37.46;20.29;94417.97;5033639;28;20057;-53
2021/07/12 08:45:59;;;;;;;6.40;4.90;;;;;;;37.50;19.48;94408.44;5033605;28;20049;-53
2021/07/12 08:48:26;;;;;;;5.00;4.50;;;;;;;37.40;19.70;94414.34;5033797;28;20041;-54
2021/07/12 08:50:53;;;;;;;6.90;4.95;;;;;;;37.15;19.12;94410.00;5033652;28;20049;-54
2021/07/12 08:53:20;;;;;;;5.78;4.45;;;;;;;37.56;19.50;94414.00;5034384;28;20436;-55
2021/07/12 08:55:48;;;;;;;5.18;4.70;;;;;;;37.80;18.88;94405.94;5032477;28;20372;-52
2021/07/12 08:58:22;;;;;;;5.20;4.70;;;;;;;37.66;19.38;94404.56;5033792;28;20360;-54
2021/07/12 09:00:52;;;;;;;5.47;4.93;;;;;;;37.53;19.67;94406.75;5033791;28;20053;-54
2021/07/12 09:03:26;;;;;;;4.95;4.50;;;;;;;37.55;19.57;94409.78;5034377;28;20045;-54
2021/07/12 09:05:57;;;;;;;5.07;4.63;;;;;;;37.89;19.98;94408.59;5033020;28;20057;-54
2021/07/12 09:08:53;;;;;;;5.35;4.85;;;;;;;37.56;19.15;94414.00;5033853;28;20038;-53
2021/07/12 09:11:30;;;;;;;5.60;4.65;;;;;;;37.94;19.20;94416.16;5033476;28;20072;-54
2021/07/12 09:13:58;;;;;;;5.78;4.95;;;;;;;37.56;18.79;94411.28;5034140;28;20456;-54
2021/07/12 09:16:37;;;;;;;5.00;4.53;;;;;;;37.75;18.34;94410.03;5033793;28;20387;-54
2021/07/12 09:19:06;;;;;;;5.72;4.43;;;;;;;37.68;18.29;94404.88;5033646;28;20064;-52
2021/07/12 09:21:51;;;;;;;5.40;4.85;;;;;;;37.64;18.64;94401.56;5034126;28;20049;-54
2021/07/12 09:24:20;;;;;;;6.07;4.47;;;;;;;37.98;19.07;94403.09;5032684;28;20061;-54
2021/07/12 09:26:51;;;;;;;6.53;4.47;;;;;;;37.70;18.12;94407.88;5033749;28;20037;-55
2021/07/12 09:29:23;;;;;;;6.05;4.80;;;;;;;37.82;17.82;94408.94;5033758;28;20053;-54
2021/07/12 09:31:50;;;;;;;5.53;4.55;;;;;;;37.96;17.86;94405.53;5033560;28;20060;-57
2021/07/12 09:34:18;;;;;;;5.95;4.30;;;;;;;38.21;17.99;94412.53;5033460;28;20045;-55
2021/07/12 09:36:46;;;;;;;5.57;4.70;;;;;;;37.67;18.39;94411.53;5033571;28;20414;-53
2021/07/12 09:39:21;;;;;;;4.55;4.15;;;;;;;37.54;18.23;94406.28;5034157;28;20056;-55
2021/07/12 09:42:00;;;;;;;5.85;4.50;;;;;;;37.37;18.36;94399.69;5033990;28;20646;-54
2021/07/12 09:44:28;;;;;;;5.07;4.65;;;;;;;37.51;18.69;94407.22;5033312;28;20053;-54
2021/07/12 09:47:01;;;;;;;5.53;4.80;;;;;;;37.44;18.55;94395.88;5033577;28;20460;-55
2021/07/12 09:49:29;;;;;;;5.05;4.55;;;;;;;37.12;18.35;94403.47;5033509;28;20057;-56
2021/07/12 09:51:59;;;;;;;4.93;4.40;;;;;;;37.51;18.23;94411.91;5033881;28;20045;-49
2021/07/12 09:54:35;;;;;;;5.00;4.60;;;;;;;37.60;17.44;94406.41;5030476;28;20065;-50
2021/07/12 09:57:05;;;;;;;5.75;4.60;;;;;;;37.75;17.62;94412.00;5026282;28;20049;-54
2021/07/12 09:59:33;;;;;;;4.60;4.20;;;;;;;37.89;17.90;94403.91;5033934;28;20387;-50
2021/07/12 10:02:01;;;;;;;5.82;4.45;;;;;;;37.99;18.18;94401.13;5016546;28;20054;-54
2021/07/12 10:04:28;;;;;;;5.03;4.38;;;;;;;38.08;18.61;94409.28;5032893;28;20048;-55
2021/07/12 10:06:56;;;;;;;5.47;4.60;;;;;;;38.11;17.43;94400.91;5032467;28;20049;-54
2021/07/12 10:09:24;;;;;;;5.20;4.57;;;;;;;38.15;17.79;94398.75;5033381;28;20456;-54
2021/07/12 10:11:53;;;;;;;4.80;4.40;;;;;;;37.71;17.59;94409.44;5033421;28;20056;-53
2021/07/12 10:14:22;;;;;;;5.75;4.47;;;;;;;37.76;17.80;94411.56;5015828;28;20057;-54
2021/07/12 10:16:50;;;;;;;5.03;4.30;;;;;;;37.95;17.54;94407.50;5031998;28;20041;-53
2021/07/12 10:19:18;;;;;;;4.70;4.20;;;;;;;37.71;17.42;94403.97;5034305;28;20090;-57
2021/07/12 10:21:51;;;;;;;6.88;4.65;;;;;;;37.83;17.44;94396.81;5037231;28;20049;-53
2021/07/12 10:24:25;;;;;;;5.88;4.63;;;;;;;38.04;16.91;94392.31;5036458;28;20053;-57
2021/07/12 10:26:57;;;;;;;5.15;4.38;;;;;;;38.24;17.79;94389.78;5036247;28;20049;-57
2021/07/12 10:29:36;;;;;;;4.90;4.40;;;;;;;38.31;18.00;94384.00;5019599;28;20041;-55
2021/07/12 10:32:09;;;;;;;5.15;4.55;;;;;;;38.30;17.70;94387.19;5036329;28;20376;-55
2021/07/12 10:34:36;;;;;;;6.93;4.55;;;;;;;38.42;16.87;94376.00;5036986;28;20045;-57
2021/07/12 10:37:32;;;;;;;5.70;4.30;;;;;;;38.30;16.94;94377.03;5035764;28;20064;-55
2021/07/12 10:40:10;;;;;;;4.80;4.00;;;;;;;38.18;17.03;94376.03;5036011;28;20444;-54
2021/07/12 10:42:49;;;;;;;5.10;4.13;;;;;;;38.29;17.01;94380.97;5036959;28;20045;-54
2021/07/12 10:45:20;;;;;;;5.38;4.00;;;;;;;38.39;16.44;94368.00;5036475;28;20448;-54
2021/07/12 10:47:49;;;;;;;5.05;4.43;;;;;;;38.11;16.87;94378.31;5035735;28;20042;-53
2021/07/12 10:50:38;;;;;;;4.63;4.20;;;;;;;38.15;16.43;94365.25;5036018;28;20053;-53
2021/07/12 10:53:23;;;;;;;7.10;4.20;;;;;;;38.22;16.77;94367.66;5036676;28;20048;-54
2021/07/12 10:56:07;;;;;;;5.18;4.28;;;;;;;38.21;16.65;94374.34;5035568;28;20049;-54
2021/07/12 10:58:36;;;;;;;4.85;4.10;;;;;;;38.36;16.81;94383.34;5036540;28;20486;-54
2021/07/12 11:01:06;;;;;;;4.68;4.28;;;;;;;38.33;16.81;94369.88;5036705;28;20053;-55
2021/07/12 11:03:40;;;;;;;4.82;4.40;;;;;;;38.51;16.78;94375.94;5035467;28;20049;-53
2021/07/12 11:06:11;;;;;;;4.38;3.97;;;;;;;38.66;16.30;94369.78;5035209;28;20060;-54
2021/07/12 11:08:52;;;;;;;5.20;3.92;;;;;;;38.38;17.23;94361.78;5036492;28;20364;-54
2021/07/12 11:11:19;;;;;;;;;;;;;;;38.03;17.63;94366.25;5036877;28;20060;-55
2021/07/12 11:13:52;;;;;;;7.03;4.50;;;;;;;38.19;17.46;94371.31;5035725;28;19924;-53
2021/07/12 11:16:24;;;;;;;5.07;4.57;;;;;;;38.23;17.03;94377.34;5035431;28;20049;-56
2021/07/12 11:18:53;;;;;;;7.00;4.93;;;;;;;37.76;17.50;94378.81;5035474;28;20049;-55
2021/07/12 11:21:32;;;;;;;5.13;4.68;;;;;;;37.89;17.42;94371.16;5035626;28;20059;-52
2021/07/12 11:24:11;;;;;;;5.30;4.85;;;;;;;38.13;17.04;94365.72;5031061;28;20353;-53
2021/07/12 11:26:42;;;;;;;5.75;5.03;;;;;;;37.91;17.72;94367.97;5002529;28;20041;-53
2021/07/12 11:29:15;;;;;;;5.38;4.65;;;;;;;37.53;17.49;94372.06;5016282;28;20053;-53
2021/07/12 11:32:01;;;;;;;5.68;5.03;;;;;;;37.64;17.42;94366.09;5006387;28;20058;-55
2021/07/12 11:34:28;;;;;;;4.60;4.20;;;;;;;37.51;17.78;94357.38;4996068;28;20353;-54
2021/07/12 11:37:07;;;;;;;4.95;4.45;;;;;;;37.32;17.96;94359.41;5004265;28;20042;-54
2021/07/12 11:39:42;;;;;;;5.20;4.40;;;;;;;37.21;17.37;94346.22;5015931;28;20060;-52
2021/07/12 11:42:18;;;;;;;4.43;4.03;;;;;;;37.77;17.00;94353.06;5015975;28;20447;-55
2021/07/12 11:44:47;;;;;;;5.05;4.13;;;;;;;37.67;17.30;94348.81;5015848;28;20050;-56
2021/07/12 11:47:32;;;;;;;4.38;3.97;;;;;;;37.59;16.66;94350.38;5015409;28;20054;-53
2021/07/12 11:50:14;;;;;;;4.65;3.92;;;;;;;38.00;17.51;94353.53;5015857;28;20467;-54
2021/07/12 11:52:45;;;;;;;5.38;4.28;;;;;;;37.81;17.09;94359.09;5015875;28;20060;-55